This is the latest recevied weather packets stored in our database for station/object WA9AFM-10. If no packets are shown the sender has not sent any weather packets the latest 10 day(s).
| Time | Temp. | Humidity | Pressure | Rain* | Wind** | Luminosity | Snow |
|---|---|---|---|---|---|---|---|
| 1778102473 | 17.22° C | 52% | 1011.7 hPa | 0 mm | - | - | - |
| 1778100673 | 17.22° C | 53% | 1012.1 hPa | 0 mm | - | - | - |
| 1778098873 | 17.22° C | 55% | 1012.2 hPa | 0 mm | - | - | - |
| 1778097073 | 17.22° C | 54% | 1012.2 hPa | 0 mm | - | - | - |
| 1778095276 | 17.78° C | 55% | 1012.3 hPa | 0 mm | - | - | - |
| 1778089873 | 16.11° C | 53% | 1013.5 hPa | 0 mm | - | - | - |
| 1778088074 | 15.56° C | 53% | 1013.5 hPa | 0 mm | - | - | - |
| 1778086483 | 14.44° C | 55% | 1013.6 hPa | 0 mm | - | - | - |
| 1778086274 | 14.44° C | 55% | 1013.6 hPa | 0 mm | - | - | - |
| 1778084472 | 13.33° C | 60% | 1013.7 hPa | 0 mm | - | - | - |
| 1778082673 | 13.33° C | 62% | 1013.5 hPa | 0 mm | - | - | - |
| 1778080873 | 11.67° C | 71% | 1013.3 hPa | 0 mm | - | - | - |
| 1778077274 | 10.56° C | 76% | 1012.4 hPa | 0 mm | - | - | - |
| 1778075473 | 9.44° C | 79% | 1012.9 hPa | 0 mm | - | - | - |
| 1778073674 | 9.44° C | 80% | 1012.5 hPa | 0 mm | - | - | - |
| 1778071873 | 8.89° C | 82% | 1012.1 hPa | 0 mm | - | - | - |
| 1778070073 | 8.33° C | 81% | 1011.6 hPa | 0 mm | - | - | - |
| 1778066523 | 8.33° C | 81% | 1010.9 hPa | 0 mm | - | - | - |
| 1778066474 | 8.33° C | 81% | 1010.9 hPa | 0 mm | - | - | - |
| 1778062875 | 8.89° C | 79% | 1011.1 hPa | 0 mm | - | - | - |
| 1778061075 | 8.89° C | 77% | 1010.8 hPa | 0 mm | - | - | - |
| 1778059274 | 8.89° C | 77% | 1010 hPa | 0 mm | - | - | - |
| 1778057474 | 8.89° C | 78% | 1009.8 hPa | 0 mm | - | - | - |
| 1778055673 | 8.89° C | 78% | 1009.1 hPa | 0 mm | - | - | - |
| 1778053874 | 8.89° C | 76% | 1008 hPa | 0 mm | - | - | - |
* Rain latest hour (hover to see other rain measurements)
** Current wind speed in m/s (hover to see current wind gust speed)